createdAt,value
2022-08-21T00:02:23.412Z,17.60
2022-08-21T00:04:57.971Z,17.50
2022-08-21T00:07:30.192Z,17.50
2022-08-21T00:10:02.424Z,17.40
2022-08-21T00:12:36.044Z,17.30
2022-08-21T00:15:12.469Z,17.30
2022-08-21T00:17:50.707Z,17.20
2022-08-21T00:20:24.049Z,17.10
2022-08-21T00:22:57.325Z,17.00
2022-08-21T00:25:29.862Z,17.00
2022-08-21T00:28:02.970Z,16.90
2022-08-21T00:30:36.307Z,16.80
2022-08-21T00:33:10.056Z,16.80
2022-08-21T00:35:44.246Z,16.70
2022-08-21T00:38:16.423Z,16.70
2022-08-21T00:40:52.275Z,16.60
2022-08-21T00:43:31.491Z,16.50
2022-08-21T00:46:07.502Z,16.40
2022-08-21T00:48:39.582Z,16.30
2022-08-21T00:51:19.599Z,16.30
2022-08-21T00:54:03.614Z,16.20
2022-08-21T00:56:36.119Z,16.20
2022-08-21T00:59:09.065Z,16.10
2022-08-21T01:01:41.570Z,16.10
2022-08-21T01:04:14.164Z,16.00
2022-08-21T01:06:47.878Z,16.00
2022-08-21T01:09:20.442Z,16.00
2022-08-21T01:11:52.901Z,15.90
2022-08-21T01:14:25.221Z,15.90
2022-08-21T01:16:59.171Z,15.90
2022-08-21T01:19:51.213Z,15.80
2022-08-21T01:22:23.298Z,15.80
2022-08-21T01:24:55.350Z,15.70
2022-08-21T01:27:27.353Z,15.70
2022-08-21T01:30:05.681Z,15.70
2022-08-21T01:32:44.272Z,15.60
2022-08-21T01:35:18.295Z,15.60
2022-08-21T01:37:51.126Z,15.50
2022-08-21T01:40:23.283Z,15.50
2022-08-21T01:42:55.368Z,15.50
2022-08-21T01:45:27.574Z,15.50
2022-08-21T01:47:59.666Z,15.50
2022-08-21T01:50:32.492Z,15.50
2022-08-21T01:53:05.452Z,15.50
2022-08-21T01:55:37.535Z,15.40
2022-08-21T01:58:09.531Z,15.40
2022-08-21T02:00:41.622Z,15.30
2022-08-21T02:03:13.683Z,15.30
2022-08-21T02:05:59.170Z,15.30
2022-08-21T02:08:31.886Z,15.20
2022-08-21T02:11:04.379Z,15.10
2022-08-21T02:13:36.651Z,15.10
2022-08-21T02:16:09.458Z,15.10
2022-08-21T02:18:41.967Z,15.10
2022-08-21T02:21:14.515Z,15.00
2022-08-21T02:23:46.998Z,15.00
2022-08-21T02:26:19.124Z,15.00
2022-08-21T02:28:51.274Z,15.00
2022-08-21T02:31:23.895Z,14.90
2022-08-21T02:33:56.418Z,14.90
2022-08-21T02:36:29.300Z,14.90
2022-08-21T02:39:01.740Z,14.80
2022-08-21T02:41:34.027Z,14.80
2022-08-21T02:44:06.068Z,14.80
2022-08-21T02:46:38.120Z,14.80
2022-08-21T02:49:10.166Z,14.80
2022-08-21T02:51:42.354Z,14.70
2022-08-21T02:54:15.087Z,14.70
2022-08-21T02:56:47.092Z,14.70
2022-08-21T02:59:19.197Z,14.60
2022-08-21T03:01:51.266Z,14.60
2022-08-21T03:04:23.451Z,14.60
2022-08-21T03:06:55.407Z,14.60
2022-08-21T03:09:27.494Z,14.50
2022-08-21T03:11:59.617Z,14.50
2022-08-21T03:14:31.575Z,14.40
2022-08-21T03:17:03.622Z,14.40
2022-08-21T03:19:36.464Z,14.40
2022-08-21T03:22:08.458Z,14.30
2022-08-21T03:24:40.486Z,14.30
2022-08-21T03:27:16.947Z,14.30
2022-08-21T03:29:49.595Z,14.30
2022-08-21T03:32:22.416Z,14.30
2022-08-21T03:34:54.459Z,14.30
2022-08-21T03:37:27.055Z,14.20
2022-08-21T03:39:59.299Z,14.20
2022-08-21T03:42:31.428Z,14.10
2022-08-21T03:45:04.654Z,14.10
2022-08-21T03:47:37.562Z,14.20
2022-08-21T03:50:09.952Z,14.10
2022-08-21T03:52:42.522Z,14.10
2022-08-21T03:55:14.755Z,14.00
2022-08-21T03:57:47.144Z,14.00
2022-08-21T04:00:20.486Z,14.00
2022-08-21T04:02:53.082Z,14.00
2022-08-21T04:05:28.286Z,14.00
2022-08-21T04:08:04.215Z,14.00
2022-08-21T04:10:38.891Z,14.00
2022-08-21T04:13:11.636Z,14.00
2022-08-21T04:15:43.718Z,14.00
2022-08-21T04:18:16.387Z,14.00
2022-08-21T04:20:52.342Z,14.00
2022-08-21T04:23:25.864Z,14.00
2022-08-21T04:25:58.299Z,14.00
2022-08-21T04:28:31.227Z,14.00
2022-08-21T04:31:03.446Z,14.00
2022-08-21T04:33:35.632Z,14.00
2022-08-21T04:36:08.094Z,13.90
2022-08-21T04:38:44.603Z,13.90
2022-08-21T04:41:16.844Z,13.90
2022-08-21T04:43:57.298Z,13.90
2022-08-21T04:46:30.424Z,13.80
2022-08-21T04:49:02.582Z,13.80
2022-08-21T04:51:38.870Z,13.80
2022-08-21T04:54:15.603Z,13.80
2022-08-21T04:56:55.275Z,13.80
2022-08-21T04:59:37.313Z,13.80
2022-08-21T05:02:14.794Z,13.80
2022-08-21T05:04:51.895Z,13.80
2022-08-21T05:07:42.482Z,13.80
2022-08-21T05:10:16.202Z,13.90
2022-08-21T05:12:48.375Z,13.90
2022-08-21T05:15:20.806Z,13.90
2022-08-21T05:18:00.770Z,14.00
2022-08-21T05:20:36.921Z,14.00
2022-08-21T05:23:11.423Z,14.10
2022-08-21T05:25:44.976Z,14.10
2022-08-21T05:28:18.948Z,14.20
2022-08-21T05:30:52.171Z,14.20
2022-08-21T05:33:24.498Z,14.30
2022-08-21T05:35:57.329Z,14.30
2022-08-21T05:38:29.569Z,14.40
2022-08-21T05:41:01.610Z,14.40
2022-08-21T05:43:37.076Z,14.50
2022-08-21T05:46:09.647Z,14.60
2022-08-21T05:48:41.833Z,14.70
2022-08-21T05:51:16.114Z,14.80
2022-08-21T05:53:48.599Z,14.80
2022-08-21T05:56:20.630Z,14.80
2022-08-21T05:58:53.134Z,14.90
2022-08-21T06:01:25.848Z,15.00
2022-08-21T06:03:57.898Z,15.10
2022-08-21T06:06:30.154Z,15.30
2022-08-21T06:09:03.409Z,15.50
2022-08-21T06:11:36.377Z,15.90
2022-08-21T06:14:08.785Z,16.30
2022-08-21T06:16:41.016Z,16.80
2022-08-21T06:19:13.432Z,17.30
2022-08-21T06:21:45.442Z,18.00
2022-08-21T06:24:17.408Z,18.60
2022-08-21T06:26:49.461Z,19.30
2022-08-21T06:29:22.483Z,20.10
2022-08-21T06:31:55.128Z,20.90
2022-08-21T06:34:28.275Z,21.70
2022-08-21T06:37:00.645Z,22.50
2022-08-21T06:39:33.335Z,23.10
2022-08-21T06:42:13.851Z,24.00
2022-08-21T06:44:48.658Z,24.50
2022-08-21T06:47:21.210Z,25.40
2022-08-21T06:49:53.716Z,26.30
2022-08-21T06:52:26.030Z,27.10
2022-08-21T06:54:58.060Z,27.70
2022-08-21T06:57:30.079Z,28.10
2022-08-21T07:00:05.137Z,28.80
2022-08-21T07:02:38.261Z,29.40
2022-08-21T07:05:18.410Z,29.90
2022-08-21T07:07:50.756Z,30.40
2022-08-21T07:10:23.278Z,30.60
2022-08-21T07:13:00.402Z,30.80
2022-08-21T07:15:33.474Z,31.00
2022-08-21T07:18:06.125Z,31.20
2022-08-21T07:20:38.459Z,31.40
2022-08-21T07:23:29.851Z,31.40
2022-08-21T07:26:04.410Z,31.50
2022-08-21T07:28:36.927Z,31.60
2022-08-21T07:31:11.271Z,31.50
2022-08-21T07:33:47.205Z,31.70
2022-08-21T07:36:19.467Z,31.80
2022-08-21T07:38:52.558Z,32.00
2022-08-21T07:41:29.479Z,32.30
2022-08-21T07:44:01.943Z,32.50
2022-08-21T07:46:34.227Z,32.60
2022-08-21T07:49:06.377Z,32.30
2022-08-21T07:51:38.411Z,32.60
2022-08-21T07:54:10.620Z,33.00
2022-08-21T07:56:49.277Z,33.00
2022-08-21T07:59:21.355Z,32.60
2022-08-21T08:01:53.365Z,32.50
2022-08-21T08:04:26.573Z,32.30
2022-08-21T08:06:58.963Z,31.80
2022-08-21T08:09:31.003Z,31.80
2022-08-21T08:12:03.545Z,32.10
2022-08-21T08:14:36.197Z,32.00
2022-08-21T08:17:08.284Z,32.20
2022-08-21T08:19:40.673Z,32.00
2022-08-21T08:22:16.998Z,32.10
2022-08-21T08:24:53.748Z,32.00
2022-08-21T08:27:26.271Z,32.10
2022-08-21T08:29:58.800Z,31.90
2022-08-21T08:32:30.857Z,31.50
2022-08-21T08:35:03.204Z,31.40
2022-08-21T08:37:41.358Z,31.20
2022-08-21T08:40:34.305Z,31.00
2022-08-21T08:43:14.864Z,30.80
2022-08-21T08:45:51.906Z,30.70
2022-08-21T08:48:53.803Z,30.50
2022-08-21T08:51:40.616Z,30.30
2022-08-21T08:54:45.004Z,30.20
2022-08-21T08:57:25.473Z,30.10
2022-08-21T09:00:02.514Z,29.80
2022-08-21T09:02:41.433Z,29.60
2022-08-21T09:05:28.288Z,29.40
2022-08-21T09:08:29.199Z,29.00
2022-08-21T09:11:54.833Z,28.70
2022-08-21T09:15:01.764Z,28.40
2022-08-21T09:18:10.500Z,28.30
2022-08-21T09:21:48.765Z,28.10
2022-08-21T09:24:50.003Z,27.90
2022-08-21T09:27:43.721Z,27.80
2022-08-21T09:30:16.131Z,27.80
2022-08-21T09:32:49.178Z,27.80
2022-08-21T09:35:23.754Z,27.80
2022-08-21T09:37:59.065Z,27.80
2022-08-21T09:40:45.753Z,27.70
2022-08-21T09:43:32.252Z,27.70
2022-08-21T09:46:10.978Z,27.70
2022-08-21T09:48:55.456Z,27.60
2022-08-21T09:51:37.940Z,27.60
2022-08-21T09:54:36.203Z,27.70
2022-08-21T09:57:29.606Z,27.70
2022-08-21T10:00:21.131Z,27.80
2022-08-21T10:03:20.678Z,27.80
2022-08-21T10:06:00.303Z,27.70
2022-08-21T10:08:39.027Z,27.70
2022-08-21T10:11:15.317Z,27.70
2022-08-21T10:14:19.812Z,27.60
2022-08-21T10:17:32.789Z,27.60
2022-08-21T10:20:43.517Z,27.70
2022-08-21T10:23:40.902Z,27.70
2022-08-21T10:27:08.874Z,27.70
2022-08-21T10:30:04.665Z,27.60
2022-08-21T10:33:14.604Z,27.60
2022-08-21T10:36:21.141Z,27.60
2022-08-21T10:39:36.236Z,27.50
2022-08-21T10:42:50.220Z,27.40
2022-08-21T10:45:45.086Z,27.50
2022-08-21T10:49:04.087Z,27.40
2022-08-21T10:51:57.301Z,27.50
2022-08-21T10:54:49.087Z,27.40
2022-08-21T10:57:41.923Z,27.50
2022-08-21T11:00:50.950Z,27.40
2022-08-21T11:03:40.221Z,27.50
2022-08-21T11:06:21.500Z,27.60
2022-08-21T11:09:10.357Z,27.60
2022-08-21T11:12:12.277Z,27.70
2022-08-21T11:15:29.005Z,27.90
2022-08-21T11:18:24.072Z,28.10
2022-08-21T11:21:37.384Z,28.20
2022-08-21T11:24:41.055Z,28.40
2022-08-21T11:27:29.150Z,28.40
2022-08-21T11:30:11.005Z,28.40
2022-08-21T11:32:52.457Z,28.60
2022-08-21T11:35:54.912Z,28.70
2022-08-21T11:38:48.237Z,28.80
2022-08-21T11:41:31.969Z,29.00
2022-08-21T11:44:30.057Z,29.00
2022-08-21T11:47:53.973Z,29.10
2022-08-21T11:50:47.502Z,29.30
2022-08-21T11:53:29.794Z,29.30
2022-08-21T11:56:17.933Z,29.50
2022-08-21T11:59:05.773Z,29.70
2022-08-21T12:01:46.275Z,29.70
2022-08-21T12:04:32.856Z,29.80
2022-08-21T12:07:19.069Z,29.70
2022-08-21T12:10:18.357Z,29.70
2022-08-21T12:13:22.335Z,29.70
2022-08-21T12:16:17.184Z,29.80
2022-08-21T12:19:10.456Z,30.00
2022-08-21T12:22:06.126Z,30.20
2022-08-21T12:24:48.883Z,30.20
2022-08-21T12:27:30.557Z,30.30
2022-08-21T12:30:44.417Z,30.40
2022-08-21T12:33:26.022Z,30.30
2022-08-21T12:36:12.744Z,30.10
2022-08-21T12:39:14.535Z,30.10
2022-08-21T12:42:02.547Z,30.10
2022-08-21T12:45:03.173Z,30.20
2022-08-21T12:48:12.701Z,30.40
2022-08-21T12:51:17.264Z,30.50
2022-08-21T12:53:59.888Z,30.90
2022-08-21T12:56:34.902Z,31.20
2022-08-21T12:59:14.535Z,31.40
2022-08-21T13:01:50.553Z,31.40
2022-08-21T13:04:34.840Z,31.40
2022-08-21T13:07:17.046Z,31.40
2022-08-21T13:10:17.516Z,31.30
2022-08-21T13:13:12.777Z,31.40
2022-08-21T13:16:02.865Z,31.50
2022-08-21T13:19:02.946Z,31.40
2022-08-21T13:21:43.053Z,31.30
2022-08-21T13:27:29.192Z,31.40
2022-08-21T13:30:18.430Z,31.40
2022-08-21T13:32:58.241Z,31.50
2022-08-21T13:35:55.444Z,31.60
2022-08-21T13:38:47.684Z,31.80
2022-08-21T13:41:28.356Z,31.90
2022-08-21T13:44:20.783Z,31.90
2022-08-21T13:46:56.790Z,32.10
2022-08-21T13:49:40.222Z,32.10
2022-08-21T13:52:21.690Z,32.10
2022-08-21T13:54:59.577Z,32.00
2022-08-21T13:57:40.283Z,32.00
2022-08-21T14:00:28.100Z,32.10
2022-08-21T14:03:09.835Z,32.20
2022-08-21T14:05:57.233Z,32.10
2022-08-21T14:08:36.697Z,32.20
2022-08-21T14:11:13.112Z,32.20
2022-08-21T14:13:50.355Z,32.20
2022-08-21T14:16:45.893Z,32.10
2022-08-21T14:19:48.774Z,32.20
2022-08-21T14:22:44.411Z,32.20
2022-08-21T14:25:24.070Z,32.20
2022-08-21T14:28:11.335Z,32.30
2022-08-21T14:31:19.604Z,32.50
2022-08-21T14:33:52.804Z,32.70
2022-08-21T14:36:26.379Z,32.50
2022-08-21T14:38:58.860Z,32.50
2022-08-21T14:41:31.471Z,32.40
2022-08-21T14:44:09.604Z,32.50
2022-08-21T14:46:55.273Z,32.50
2022-08-21T14:49:29.679Z,32.30
2022-08-21T14:52:02.090Z,32.10
2022-08-21T14:54:34.907Z,32.00
2022-08-21T14:57:11.321Z,32.00
2022-08-21T14:59:44.506Z,31.80
2022-08-21T15:02:16.609Z,31.90
2022-08-21T15:04:50.510Z,31.90
2022-08-21T15:07:22.728Z,31.80
2022-08-21T15:09:54.959Z,31.90
2022-08-21T15:12:27.540Z,31.80
2022-08-21T15:14:59.958Z,31.70
2022-08-21T15:17:32.168Z,31.70
2022-08-21T15:20:05.800Z,31.60
2022-08-21T15:22:39.806Z,31.50
2022-08-21T15:25:19.612Z,31.50
2022-08-21T15:27:52.015Z,31.40
2022-08-21T15:30:24.200Z,31.40
2022-08-21T15:32:56.868Z,31.40
2022-08-21T15:35:29.145Z,31.40
2022-08-21T15:38:01.280Z,31.50
2022-08-21T15:40:35.139Z,31.50
2022-08-21T15:43:10.640Z,31.40
2022-08-21T15:45:54.540Z,31.40
2022-08-21T15:48:27.334Z,31.40
2022-08-21T15:50:59.839Z,31.20
2022-08-21T15:53:36.236Z,31.10
2022-08-21T15:56:24.104Z,31.10
2022-08-21T15:59:24.000Z,31.00
2022-08-21T16:01:57.220Z,31.00
2022-08-21T16:04:29.390Z,30.90
2022-08-21T16:07:06.581Z,30.90
2022-08-21T16:09:43.080Z,30.80
2022-08-21T16:12:23.628Z,30.80
2022-08-21T16:15:00.253Z,30.80
2022-08-21T16:17:36.159Z,30.60
2022-08-21T16:20:13.128Z,30.60
2022-08-21T16:22:49.408Z,30.50
2022-08-21T16:25:23.054Z,30.40
2022-08-21T16:28:00.275Z,30.20
2022-08-21T16:30:34.481Z,30.10
2022-08-21T16:33:08.660Z,30.00
2022-08-21T16:35:51.684Z,29.90
2022-08-21T16:38:24.283Z,29.90
2022-08-21T16:40:58.592Z,29.90
2022-08-21T16:43:31.669Z,29.80
2022-08-21T16:46:05.701Z,29.80
2022-08-21T16:48:39.457Z,29.70
2022-08-21T16:51:15.054Z,29.60
2022-08-21T16:53:47.701Z,29.50
2022-08-21T16:56:19.923Z,29.40
2022-08-21T16:58:54.717Z,29.30
2022-08-21T17:01:31.730Z,29.20
2022-08-21T17:04:05.796Z,29.00
2022-08-21T17:06:38.085Z,28.80
2022-08-21T17:09:10.291Z,28.70
2022-08-21T17:11:49.461Z,28.50
2022-08-21T17:14:23.907Z,28.40
2022-08-21T17:16:56.936Z,28.30
2022-08-21T17:19:30.438Z,28.10
2022-08-21T17:22:05.378Z,28.00
2022-08-21T17:24:38.846Z,27.90
2022-08-21T17:27:12.836Z,27.70
2022-08-21T17:29:45.051Z,27.60
2022-08-21T17:32:18.827Z,27.50
2022-08-21T17:34:51.174Z,27.40
2022-08-21T17:37:28.620Z,27.30
2022-08-21T17:40:02.166Z,27.20
2022-08-21T17:42:41.459Z,27.10
2022-08-21T17:45:18.250Z,27.00
2022-08-21T17:47:51.100Z,26.80
2022-08-21T17:50:23.545Z,26.70
2022-08-21T17:52:55.984Z,26.60
2022-08-21T17:55:29.753Z,26.40
2022-08-21T17:58:03.780Z,26.30
2022-08-21T18:00:37.074Z,26.30
2022-08-21T18:03:31.780Z,26.10
2022-08-21T18:06:11.454Z,26.10
2022-08-21T18:08:47.205Z,25.90
2022-08-21T18:11:23.466Z,25.70
2022-08-21T18:14:07.383Z,25.60
2022-08-21T18:16:42.318Z,25.40
2022-08-21T18:19:17.505Z,25.30
2022-08-21T18:21:58.773Z,25.10
2022-08-21T18:24:32.930Z,25.00
2022-08-21T18:27:09.843Z,24.80
2022-08-21T18:29:43.853Z,24.60
2022-08-21T18:32:31.502Z,24.50
2022-08-21T18:35:17.543Z,24.30
2022-08-21T18:37:49.887Z,24.20
2022-08-21T18:40:22.402Z,24.00
2022-08-21T18:42:55.733Z,23.90
2022-08-21T18:45:28.182Z,23.80
2022-08-21T18:48:03.591Z,23.70
2022-08-21T18:50:42.345Z,23.50
2022-08-21T18:53:27.325Z,23.40
2022-08-21T18:59:05.834Z,23.10
2022-08-21T19:01:38.988Z,23.00
2022-08-21T19:04:29.920Z,22.90
2022-08-21T19:07:07.260Z,22.80
2022-08-21T19:09:40.023Z,22.80
2022-08-21T19:12:18.357Z,22.60
2022-08-21T19:14:54.653Z,22.50
2022-08-21T19:17:27.913Z,22.40
2022-08-21T19:20:07.696Z,22.40
2022-08-21T19:23:01.307Z,22.40
2022-08-21T19:25:39.708Z,22.30
2022-08-21T19:28:29.673Z,22.20
2022-08-21T19:31:12.565Z,22.20
2022-08-21T19:33:59.675Z,22.10
2022-08-21T19:36:42.215Z,22.10
2022-08-21T19:39:16.302Z,22.00
2022-08-21T19:41:52.882Z,22.00
2022-08-21T19:44:30.801Z,21.90
2022-08-21T19:47:18.948Z,22.00
2022-08-21T19:49:56.557Z,22.00
2022-08-21T19:52:32.713Z,21.90
2022-08-21T19:55:10.674Z,22.00
2022-08-21T19:57:43.064Z,22.00
2022-08-21T20:00:17.266Z,21.90
2022-08-21T20:02:49.599Z,21.90
2022-08-21T20:05:22.916Z,21.80
2022-08-21T20:07:55.254Z,21.80
2022-08-21T20:10:27.646Z,21.70
2022-08-21T20:13:00.341Z,21.60
2022-08-21T20:15:32.805Z,21.50
2022-08-21T20:18:05.057Z,21.50
2022-08-21T20:20:39.626Z,21.40
2022-08-21T20:23:12.264Z,21.30
2022-08-21T20:25:47.242Z,21.20
2022-08-21T20:28:20.550Z,21.10
2022-08-21T20:30:53.880Z,21.00
2022-08-21T20:33:27.352Z,20.90
2022-08-21T20:35:59.803Z,20.80
2022-08-21T20:38:32.351Z,20.70
2022-08-21T20:41:09.951Z,20.60
2022-08-21T20:43:56.701Z,20.50
2022-08-21T20:46:32.023Z,20.40
2022-08-21T20:49:08.343Z,20.30
2022-08-21T20:51:49.493Z,20.10
2022-08-21T20:54:47.255Z,20.10
2022-08-21T20:57:35.972Z,20.00
2022-08-21T21:00:20.954Z,19.90
2022-08-21T21:03:30.167Z,19.80
2022-08-21T21:06:14.438Z,19.70
2022-08-21T21:09:00.400Z,19.60
2022-08-21T21:12:00.056Z,19.50
2022-08-21T21:14:47.088Z,19.40
2022-08-21T21:17:34.811Z,19.40
2022-08-21T21:20:22.618Z,19.30
2022-08-21T21:23:18.340Z,19.30
2022-08-21T21:26:18.082Z,19.20
2022-08-21T21:29:10.574Z,19.20
2022-08-21T21:31:52.910Z,19.10
2022-08-21T21:34:31.640Z,19.10
2022-08-21T21:37:39.679Z,19.00
2022-08-21T21:40:23.908Z,19.00
2022-08-21T21:43:48.194Z,19.00
2022-08-21T21:46:59.390Z,18.90
2022-08-21T21:50:04.058Z,18.80
2022-08-21T21:53:27.050Z,18.70
2022-08-21T21:56:43.923Z,18.70
2022-08-21T21:59:53.731Z,18.60
2022-08-21T22:03:05.563Z,18.50
2022-08-21T22:06:06.014Z,18.50
2022-08-21T22:09:02.954Z,18.50
2022-08-21T22:12:08.890Z,18.40
2022-08-21T22:15:00.789Z,18.40
2022-08-21T22:17:51.050Z,18.40
2022-08-21T22:20:51.193Z,18.30
2022-08-21T22:23:34.838Z,18.30
2022-08-21T22:26:20.763Z,18.20
2022-08-21T22:29:09.285Z,18.20
2022-08-21T22:32:07.629Z,18.20
2022-08-21T22:34:42.487Z,18.10
2022-08-21T22:37:39.781Z,18.00
2022-08-21T22:40:35.727Z,18.00
2022-08-21T22:43:18.285Z,17.90
2022-08-21T22:46:04.264Z,17.90
2022-08-21T22:49:25.296Z,17.80
2022-08-21T22:52:12.407Z,17.80
2022-08-21T22:54:57.594Z,17.80
2022-08-21T22:58:23.768Z,17.70
2022-08-21T23:01:29.200Z,17.70
2022-08-21T23:04:20.221Z,17.70
2022-08-21T23:06:59.107Z,17.70
2022-08-21T23:09:38.844Z,17.70
2022-08-21T23:12:33.053Z,17.80
2022-08-21T23:15:41.422Z,17.80
2022-08-21T23:18:36.030Z,17.80
2022-08-21T23:21:45.295Z,17.80
2022-08-21T23:25:01.613Z,17.70
2022-08-21T23:28:20.543Z,17.70
2022-08-21T23:31:25.106Z,17.60
2022-08-21T23:34:15.840Z,17.60
2022-08-21T23:37:49.151Z,17.50
2022-08-21T23:40:52.087Z,17.40
2022-08-21T23:43:41.657Z,17.30
2022-08-21T23:47:02.690Z,17.20
2022-08-21T23:50:18.608Z,17.20
2022-08-21T23:53:34.487Z,17.10
2022-08-21T23:56:44.735Z,17.10
